aviador You're here:

LFRD Decoded Metar

DINARD in FRANCE
Report Time2017-08-24 08:30:00
UTC Time2017-08-24 08:49:42
Flight Rules mvfr MVFR
Wind320° at 03 kt
W.Decomp.*RWY 30: 2.8 kt HW 1.1 kt RCW
RWY 35: 2.6 kt HW 1.4 kt LCW
W.Rank320° ranks 12
Current wind is below 320° avg. (10.0)
Visibility9999 m
Phenomena:N/A
Clouds:Broken 014 Hf
Broken 220 Hf
Expected CloudBase > 1,600 ft AGL from Temp-Dew spread
Ceiling1,400 ft
Temp18°C (ISA +3)
Dew Point14°C (78% RH)
QNH1019 hPa
Density Alt604 ft
Elevation194 ft
Report Wrong Elevation
Raw Report
LFRD 240830Z AUTO 32003KT 250V360 9999 BKN014 BKN220 18/14 Q1019
BECMG SCT030=

Extra information for LFRD:More info

Metar Taf Metar & Taf Last 4 Metars F.Rules Stats Wind Profile Meteogram Temp Stats Airport Information Weather charts Add Link Nearby VenuesMetar ALERT Operation Metar Decoded Social comments